LESTLECO

Guest
Details From LEST - Santiago
To LECO - A Coruna
Flight Number -
Tags generated
Created
Modified
Stats Distance 24 nm / 45 km
Max Altitude 600 ft / 183 m
Waypoints 3
Social Downloads 1
Likes 0
Share VATSIM

Download

Looking for another format? Having issues loading an existing format? Contact us
Advertisement - Login to hide

Notes

Basic altitude profile: - Ascent Rate: 2300ft/min - Ascent Speed: 260kts - Cruise Altitude: 13000ft - Cruise Speed: 310kts - Descent Rate: 1800ft/min - Descent Speed: 230kts Options: - Use NATs: yes - Use PACOTS: yes - Use low airways: yes - Use high airways: yes

Route

LEST STG LECO

ID Type Via Altitude Latitude Longitude Leg Dist Tot Dist Heading (true) Name
O LEST APT - 0 ft / 0 m 42.89780˚ -8.41569˚ - 0 nm - Santiago
STG VOR - 600 ft / 183 m 42.92687˚ -8.42539˚ 1 nm 1 nm 346° / 346° SANTIAGO VOR-DME
O LECO APT - 0 ft / 0 m 43.30226˚ -8.37709˚ 22 nm 24 nm 5° / 5° A Coruna

Altitude Profile

Advertisement - Login to hide

LEST

Details ICAO LEST (SCQ)
Name Santiago
Region Spain
Timezone Europe/Madrid (UTC+1.0)
Stats Elevation 1,169 ft / 356 m (AMSL)
Location 42.897797° -8.415691°
Runways 1
Magnetic Variation 2.372° W

METAR

LEST 122200Z 19007KT 160V240 3000 -RADZ BR OVC002 07/07 Q1022 NOSIG

Decode

TAF

TAF AMD LEST 121920Z 1219/1318 21009KT 8000 SCT010 BKN020 TX12/1314Z TN06/1307Z TEMPO 1219/1312 BKN010 TEMPO 1219/1312 3000 -RADZ BR BKN005 PROB40 TEMPO 1300/1312 0300 -RADZ BCFG BKN002 TEMPO 1312/1318 23015G25KT TEMPO 1312/1318 3000 RA BR BKN008 PROB40 TEMPO 1312/1318 1500 RA BCFG BKN004

Decode

Departure Runways

ID Width Length Bearing (true) Bearing (mag) Surface Threshold Offset Overrun Length
17 148 ft / 45 m 10,509 ft / 3,203 m 166.04° 168.41° Asphalt 394 ft / 120 m 0 ft / 0 m
35 148 ft / 45 m 10,509 ft / 3,203 m 346.05° 348.42° Asphalt 0 ft / 0 m 197 ft / 60 m

LECO

Details ICAO LECO (LCG)
Name A Coruna
Region Spain
Timezone Europe/Madrid (UTC+1.0)
Stats Elevation 323 ft / 98 m (AMSL)
Location 43.302264° -8.377086°
Runways 1
Magnetic Variation 2.392° W

METAR

LECO 122200Z 21013KT 180V250 9999 FEW018 SCT034 11/08 Q1020 NOSIG

Decode

TAF

TAF LECO 122000Z 1221/1321 21009KT 9999 BKN030 TX15/1314Z TN08/1307Z PROB40 TEMPO 1221/1303 21015G25KT PROB30 TEMPO 1221/1306 RA BKN010 TEMPO 1310/1321 21015G25KT TEMPO 1315/1321 RA BKN014

Decode

Destination Runways

ID Width Length Bearing (true) Bearing (mag) Surface Threshold Offset Overrun Length
04 148 ft / 45 m 6,371 ft / 1,942 m 30.94° 33.33° Asphalt 0 ft / 0 m 194 ft / 59 m
22 148 ft / 45 m 6,371 ft / 1,942 m 210.94° 213.33° Asphalt 0 ft / 0 m 203 ft / 62 m

Approach Navaids

Runway Type Ident Frequency Range Bearing (true) Bearing (mag) Slope Elevation
22 Localiser LCO 109.90 MHz 18 nm / 33 km 210.89° 213.28° - 329 ft / 100 m (AMSL)
22 Glidescope LCO 109.90 MHz 10 nm / 19 km 210.94° 213.33° 3.00° 323 ft / 98 m (AMSL)
22 DME LCO 109.90 MHz 18 nm / 33 km - - - 293 ft / 89 m (AMSL)

Popular Alternatives